Air Navigation Services of Czech Republic
Airport: LKBC Updated:  28.01.2021 01:31:26  UTC
 METAR LKBC 28.01. 01:30 RRA
METAR LKBC 280130Z AUTO 07003KT 9999 OVC022 M04/M05 Q1011=